sensor_id;sensor_type;location;lat;lon;timestamp;P1;durP1;ratioP1;P2;durP2;ratioP2
11006;SDS011;8186;57.652;11.968;2023-02-02T00:01:09;0.40;;;0.40;;
11006;SDS011;8186;57.652;11.968;2023-02-02T00:03:38;0.70;;;0.60;;
11006;SDS011;8186;57.652;11.968;2023-02-02T00:06:05;0.47;;;0.40;;
11006;SDS011;8186;57.652;11.968;2023-02-02T00:08:32;0.40;;;0.33;;
11006;SDS011;8186;57.652;11.968;2023-02-02T00:11:00;0.50;;;0.50;;
11006;SDS011;8186;57.652;11.968;2023-02-02T00:13:26;1.73;;;0.40;;
11006;SDS011;8186;57.652;11.968;2023-02-02T00:15:53;0.47;;;0.37;;
11006;SDS011;8186;57.652;11.968;2023-02-02T00:18:20;0.60;;;0.40;;
11006;SDS011;8186;57.652;11.968;2023-02-02T00:20:49;0.30;;;0.30;;
11006;SDS011;8186;57.652;11.968;2023-02-02T00:23:16;1.03;;;0.40;;
11006;SDS011;8186;57.652;11.968;2023-02-02T00:25:43;0.30;;;0.30;;
11006;SDS011;8186;57.652;11.968;2023-02-02T00:28:10;0.50;;;0.43;;
11006;SDS011;8186;57.652;11.968;2023-02-02T00:30:37;0.83;;;0.40;;
11006;SDS011;8186;57.652;11.968;2023-02-02T00:33:04;0.40;;;0.30;;
11006;SDS011;8186;57.652;11.968;2023-02-02T00:35:31;0.47;;;0.40;;
11006;SDS011;8186;57.652;11.968;2023-02-02T00:37:59;0.40;;;0.40;;
11006;SDS011;8186;57.652;11.968;2023-02-02T00:40:27;0.73;;;0.50;;
11006;SDS011;8186;57.652;11.968;2023-02-02T00:42:54;0.43;;;0.40;;
11006;SDS011;8186;57.652;11.968;2023-02-02T00:45:21;0.80;;;0.40;;
11006;SDS011;8186;57.652;11.968;2023-02-02T00:47:49;0.60;;;0.40;;
11006;SDS011;8186;57.652;11.968;2023-02-02T00:50:16;1.47;;;0.43;;
11006;SDS011;8186;57.652;11.968;2023-02-02T00:52:44;1.37;;;0.50;;
11006;SDS011;8186;57.652;11.968;2023-02-02T00:55:14;0.97;;;0.50;;
11006;SDS011;8186;57.652;11.968;2023-02-02T00:57:41;0.43;;;0.40;;
11006;SDS011;8186;57.652;11.968;2023-02-02T01:00:10;0.90;;;0.50;;
11006;SDS011;8186;57.652;11.968;2023-02-02T01:02:38;0.77;;;0.50;;
11006;SDS011;8186;57.652;11.968;2023-02-02T01:05:05;0.47;;;0.47;;
11006;SDS011;8186;57.652;11.968;2023-02-02T01:07:32;0.73;;;0.50;;
11006;SDS011;8186;57.652;11.968;2023-02-02T01:09:59;1.17;;;0.33;;
11006;SDS011;8186;57.652;11.968;2023-02-02T01:12:28;0.63;;;0.50;;
11006;SDS011;8186;57.652;11.968;2023-02-02T01:14:55;0.40;;;0.40;;
11006;SDS011;8186;57.652;11.968;2023-02-02T01:17:21;0.40;;;0.40;;
11006;SDS011;8186;57.652;11.968;2023-02-02T01:19:48;1.07;;;0.57;;
11006;SDS011;8186;57.652;11.968;2023-02-02T01:22:16;0.40;;;0.40;;
11006;SDS011;8186;57.652;11.968;2023-02-02T01:24:43;0.73;;;0.60;;
11006;SDS011;8186;57.652;11.968;2023-02-02T01:27:09;1.03;;;0.40;;
11006;SDS011;8186;57.652;11.968;2023-02-02T01:29:38;0.40;;;0.40;;
11006;SDS011;8186;57.652;11.968;2023-02-02T01:32:05;1.10;;;0.50;;
11006;SDS011;8186;57.652;11.968;2023-02-02T01:34:32;0.60;;;0.50;;
11006;SDS011;8186;57.652;11.968;2023-02-02T01:36:59;0.67;;;0.47;;
11006;SDS011;8186;57.652;11.968;2023-02-02T01:39:26;0.83;;;0.63;;
11006;SDS011;8186;57.652;11.968;2023-02-02T01:41:53;0.83;;;0.53;;
11006;SDS011;8186;57.652;11.968;2023-02-02T01:47:26;1.00;;;0.50;;
11006;SDS011;8186;57.652;11.968;2023-02-02T01:49:55;0.40;;;0.30;;
11006;SDS011;8186;57.652;11.968;2023-02-02T01:52:23;0.77;;;0.50;;
11006;SDS011;8186;57.652;11.968;2023-02-02T01:54:51;0.73;;;0.50;;
11006;SDS011;8186;57.652;11.968;2023-02-02T01:57:23;0.93;;;0.60;;
11006;SDS011;8186;57.652;11.968;2023-02-02T01:59:52;0.50;;;0.40;;
11006;SDS011;8186;57.652;11.968;2023-02-02T02:02:20;1.33;;;0.50;;
11006;SDS011;8186;57.652;11.968;2023-02-02T02:04:49;1.20;;;0.30;;
11006;SDS011;8186;57.652;11.968;2023-02-02T02:07:17;0.40;;;0.40;;
11006;SDS011;8186;57.652;11.968;2023-02-02T02:09:44;1.80;;;0.50;;
11006;SDS011;8186;57.652;11.968;2023-02-02T02:12:11;0.53;;;0.50;;
11006;SDS011;8186;57.652;11.968;2023-02-02T02:14:39;0.53;;;0.33;;
11006;SDS011;8186;57.652;11.968;2023-02-02T02:17:29;0.20;;;0.20;;
11006;SDS011;8186;57.652;11.968;2023-02-02T02:20:08;0.30;;;0.30;;
11006;SDS011;8186;57.652;11.968;2023-02-02T02:33:00;0.50;;;0.50;;
11006;SDS011;8186;57.652;11.968;2023-02-02T02:35:30;0.83;;;0.47;;
11006;SDS011;8186;57.652;11.968;2023-02-02T02:37:59;0.70;;;0.40;;
11006;SDS011;8186;57.652;11.968;2023-02-02T02:40:32;0.50;;;0.40;;
11006;SDS011;8186;57.652;11.968;2023-02-02T02:43:01;1.13;;;0.30;;
11006;SDS011;8186;57.652;11.968;2023-02-02T02:45:33;0.70;;;0.40;;
11006;SDS011;8186;57.652;11.968;2023-02-02T02:48:02;0.40;;;0.30;;
11006;SDS011;8186;57.652;11.968;2023-02-02T02:50:30;0.73;;;0.33;;
11006;SDS011;8186;57.652;11.968;2023-02-02T02:52:58;0.50;;;0.30;;
11006;SDS011;8186;57.652;11.968;2023-02-02T02:55:27;1.30;;;0.40;;
11006;SDS011;8186;57.652;11.968;2023-02-02T02:58:03;1.47;;;0.40;;
11006;SDS011;8186;57.652;11.968;2023-02-02T03:00:36;0.93;;;0.60;;
11006;SDS011;8186;57.652;11.968;2023-02-02T03:03:12;0.40;;;0.40;;
11006;SDS011;8186;57.652;11.968;2023-02-02T03:05:45;0.50;;;0.40;;
11006;SDS011;8186;57.652;11.968;2023-02-02T03:08:16;1.60;;;0.77;;
11006;SDS011;8186;57.652;11.968;2023-02-02T03:10:48;3.17;;;0.40;;
11006;SDS011;8186;57.652;11.968;2023-02-02T03:13:15;0.50;;;0.40;;
11006;SDS011;8186;57.652;11.968;2023-02-02T03:15:43;0.90;;;0.43;;
11006;SDS011;8186;57.652;11.968;2023-02-02T03:18:12;0.77;;;0.40;;
11006;SDS011;8186;57.652;11.968;2023-02-02T03:20:41;0.80;;;0.47;;
11006;SDS011;8186;57.652;11.968;2023-02-02T03:23:09;0.77;;;0.40;;
11006;SDS011;8186;57.652;11.968;2023-02-02T03:25:36;0.57;;;0.53;;
11006;SDS011;8186;57.652;11.968;2023-02-02T03:28:03;0.30;;;0.30;;
11006;SDS011;8186;57.652;11.968;2023-02-02T03:30:30;0.50;;;0.40;;
11006;SDS011;8186;57.652;11.968;2023-02-02T03:32:57;1.33;;;0.40;;
11006;SDS011;8186;57.652;11.968;2023-02-02T03:35:26;0.40;;;0.40;;
11006;SDS011;8186;57.652;11.968;2023-02-02T03:37:53;0.60;;;0.53;;
11006;SDS011;8186;57.652;11.968;2023-02-02T03:40:20;0.30;;;0.30;;
11006;SDS011;8186;57.652;11.968;2023-02-02T03:42:47;1.33;;;0.40;;
11006;SDS011;8186;57.652;11.968;2023-02-02T03:45:14;1.10;;;0.30;;
11006;SDS011;8186;57.652;11.968;2023-02-02T03:47:42;0.40;;;0.30;;
11006;SDS011;8186;57.652;11.968;2023-02-02T03:50:09;0.93;;;0.40;;
11006;SDS011;8186;57.652;11.968;2023-02-02T03:52:38;0.90;;;0.43;;
11006;SDS011;8186;57.652;11.968;2023-02-02T03:55:05;0.43;;;0.40;;
11006;SDS011;8186;57.652;11.968;2023-02-02T03:57:33;0.37;;;0.37;;
11006;SDS011;8186;57.652;11.968;2023-02-02T03:59:59;0.90;;;0.60;;
11006;SDS011;8186;57.652;11.968;2023-02-02T04:02:26;0.30;;;0.30;;
11006;SDS011;8186;57.652;11.968;2023-02-02T04:04:53;1.30;;;0.40;;
11006;SDS011;8186;57.652;11.968;2023-02-02T04:07:20;1.43;;;0.60;;
11006;SDS011;8186;57.652;11.968;2023-02-02T04:09:48;0.60;;;0.40;;
11006;SDS011;8186;57.652;11.968;2023-02-02T04:12:15;0.50;;;0.50;;
11006;SDS011;8186;57.652;11.968;2023-02-02T04:14:42;0.73;;;0.40;;
11006;SDS011;8186;57.652;11.968;2023-02-02T04:17:09;0.50;;;0.50;;
11006;SDS011;8186;57.652;11.968;2023-02-02T04:19:36;0.43;;;0.40;;
11006;SDS011;8186;57.652;11.968;2023-02-02T04:22:03;1.50;;;0.50;;
11006;SDS011;8186;57.652;11.968;2023-02-02T04:24:29;0.30;;;0.30;;
11006;SDS011;8186;57.652;11.968;2023-02-02T04:26:58;0.50;;;0.40;;
11006;SDS011;8186;57.652;11.968;2023-02-02T04:29:25;0.60;;;0.37;;
11006;SDS011;8186;57.652;11.968;2023-02-02T04:31:53;0.40;;;0.37;;
11006;SDS011;8186;57.652;11.968;2023-02-02T04:34:20;0.83;;;0.50;;
11006;SDS011;8186;57.652;11.968;2023-02-02T04:36:47;0.70;;;0.67;;
11006;SDS011;8186;57.652;11.968;2023-02-02T04:39:14;0.70;;;0.50;;
11006;SDS011;8186;57.652;11.968;2023-02-02T04:41:40;0.53;;;0.50;;
11006;SDS011;8186;57.652;11.968;2023-02-02T04:44:11;0.57;;;0.40;;
11006;SDS011;8186;57.652;11.968;2023-02-02T04:46:39;0.93;;;0.40;;
11006;SDS011;8186;57.652;11.968;2023-02-02T04:49:07;0.40;;;0.40;;
11006;SDS011;8186;57.652;11.968;2023-02-02T04:51:34;1.17;;;0.40;;
11006;SDS011;8186;57.652;11.968;2023-02-02T04:54:01;0.97;;;0.50;;
11006;SDS011;8186;57.652;11.968;2023-02-02T04:56:28;1.10;;;0.60;;
11006;SDS011;8186;57.652;11.968;2023-02-02T04:58:55;0.73;;;0.40;;
11006;SDS011;8186;57.652;11.968;2023-02-02T05:01:23;0.40;;;0.40;;
11006;SDS011;8186;57.652;11.968;2023-02-02T05:03:51;0.57;;;0.50;;
11006;SDS011;8186;57.652;11.968;2023-02-02T05:06:18;1.33;;;0.43;;
11006;SDS011;8186;57.652;11.968;2023-02-02T05:08:47;1.53;;;0.40;;
11006;SDS011;8186;57.652;11.968;2023-02-02T05:11:15;0.30;;;0.30;;
11006;SDS011;8186;57.652;11.968;2023-02-02T05:13:44;0.93;;;0.30;;
11006;SDS011;8186;57.652;11.968;2023-02-02T05:16:11;1.80;;;0.53;;
11006;SDS011;8186;57.652;11.968;2023-02-02T05:18:39;0.80;;;0.50;;
11006;SDS011;8186;57.652;11.968;2023-02-02T05:21:06;0.60;;;0.50;;
11006;SDS011;8186;57.652;11.968;2023-02-02T05:23:33;1.27;;;0.70;;
11006;SDS011;8186;57.652;11.968;2023-02-02T05:26:00;0.47;;;0.40;;
11006;SDS011;8186;57.652;11.968;2023-02-02T05:28:27;1.63;;;0.50;;
11006;SDS011;8186;57.652;11.968;2023-02-02T05:30:54;2.27;;;0.57;;
11006;SDS011;8186;57.652;11.968;2023-02-02T05:33:21;2.87;;;0.53;;
11006;SDS011;8186;57.652;11.968;2023-02-02T05:35:50;1.17;;;0.50;;
11006;SDS011;8186;57.652;11.968;2023-02-02T05:38:17;1.07;;;0.77;;
11006;SDS011;8186;57.652;11.968;2023-02-02T05:40:43;3.17;;;0.40;;
11006;SDS011;8186;57.652;11.968;2023-02-02T05:43:10;1.03;;;0.67;;
11006;SDS011;8186;57.652;11.968;2023-02-02T05:45:37;0.53;;;0.40;;
11006;SDS011;8186;57.652;11.968;2023-02-02T05:48:04;1.13;;;0.50;;
11006;SDS011;8186;57.652;11.968;2023-02-02T05:50:31;2.23;;;0.50;;
11006;SDS011;8186;57.652;11.968;2023-02-02T05:53:00;0.70;;;0.47;;
11006;SDS011;8186;57.652;11.968;2023-02-02T05:55:27;3.93;;;0.60;;
11006;SDS011;8186;57.652;11.968;2023-02-02T05:57:53;1.63;;;0.40;;
11006;SDS011;8186;57.652;11.968;2023-02-02T06:00:21;0.50;;;0.40;;
11006;SDS011;8186;57.652;11.968;2023-02-02T06:02:48;0.47;;;0.40;;
11006;SDS011;8186;57.652;11.968;2023-02-02T06:05:15;0.80;;;0.60;;
11006;SDS011;8186;57.652;11.968;2023-02-02T06:07:42;4.37;;;0.50;;
11006;SDS011;8186;57.652;11.968;2023-02-02T06:10:10;1.10;;;0.57;;
11006;SDS011;8186;57.652;11.968;2023-02-02T06:12:37;2.03;;;0.83;;
11006;SDS011;8186;57.652;11.968;2023-02-02T06:15:05;4.50;;;1.20;;
11006;SDS011;8186;57.652;11.968;2023-02-02T06:17:32;0.70;;;0.70;;
11006;SDS011;8186;57.652;11.968;2023-02-02T06:19:59;2.00;;;1.67;;
11006;SDS011;8186;57.652;11.968;2023-02-02T06:22:26;2.33;;;0.73;;
11006;SDS011;8186;57.652;11.968;2023-02-02T06:24:54;1.83;;;1.00;;
11006;SDS011;8186;57.652;11.968;2023-02-02T06:27:23;4.27;;;0.80;;
11006;SDS011;8186;57.652;11.968;2023-02-02T06:29:50;1.23;;;0.87;;
11006;SDS011;8186;57.652;11.968;2023-02-02T06:32:16;2.13;;;0.80;;
11006;SDS011;8186;57.652;11.968;2023-02-02T06:34:43;1.57;;;0.67;;
11006;SDS011;8186;57.652;11.968;2023-02-02T06:37:10;1.10;;;0.80;;
11006;SDS011;8186;57.652;11.968;2023-02-02T06:39:37;1.63;;;1.00;;
11006;SDS011;8186;57.652;11.968;2023-02-02T06:42:04;1.43;;;1.03;;
11006;SDS011;8186;57.652;11.968;2023-02-02T06:44:33;1.10;;;0.80;;
11006;SDS011;8186;57.652;11.968;2023-02-02T06:47:00;1.50;;;0.80;;
11006;SDS011;8186;57.652;11.968;2023-02-02T06:49:26;2.27;;;0.80;;
11006;SDS011;8186;57.652;11.968;2023-02-02T06:51:53;1.90;;;0.77;;
11006;SDS011;8186;57.652;11.968;2023-02-02T06:54:20;3.33;;;0.93;;
11006;SDS011;8186;57.652;11.968;2023-02-02T06:56:47;2.50;;;1.00;;
11006;SDS011;8186;57.652;11.968;2023-02-02T06:59:14;1.43;;;0.70;;
11006;SDS011;8186;57.652;11.968;2023-02-02T07:01:42;2.67;;;0.90;;
11006;SDS011;8186;57.652;11.968;2023-02-02T07:04:09;0.93;;;0.70;;
11006;SDS011;8186;57.652;11.968;2023-02-02T07:06:36;1.57;;;0.90;;
11006;SDS011;8186;57.652;11.968;2023-02-02T07:09:04;0.90;;;0.70;;
11006;SDS011;8186;57.652;11.968;2023-02-02T07:11:31;1.70;;;0.73;;
11006;SDS011;8186;57.652;11.968;2023-02-02T07:13:59;1.63;;;0.63;;
11006;SDS011;8186;57.652;11.968;2023-02-02T07:16:27;1.00;;;0.50;;
11006;SDS011;8186;57.652;11.968;2023-02-02T07:18:55;0.53;;;0.43;;
11006;SDS011;8186;57.652;11.968;2023-02-02T07:21:23;1.10;;;0.70;;
11006;SDS011;8186;57.652;11.968;2023-02-02T07:23:52;1.67;;;0.50;;
11006;SDS011;8186;57.652;11.968;2023-02-02T07:26:19;1.17;;;0.57;;
11006;SDS011;8186;57.652;11.968;2023-02-02T07:28:46;1.50;;;1.30;;
11006;SDS011;8186;57.652;11.968;2023-02-02T07:31:14;1.20;;;0.90;;
11006;SDS011;8186;57.652;11.968;2023-02-02T07:33:43;0.83;;;0.67;;
11006;SDS011;8186;57.652;11.968;2023-02-02T07:36:12;4.87;;;3.70;;
11006;SDS011;8186;57.652;11.968;2023-02-02T07:38:40;1.93;;;0.90;;
11006;SDS011;8186;57.652;11.968;2023-02-02T07:41:07;1.17;;;0.63;;
11006;SDS011;8186;57.652;11.968;2023-02-02T07:43:34;2.27;;;1.03;;
11006;SDS011;8186;57.652;11.968;2023-02-02T07:46:02;1.43;;;0.90;;
11006;SDS011;8186;57.652;11.968;2023-02-02T07:48:32;1.00;;;0.70;;
11006;SDS011;8186;57.652;11.968;2023-02-02T07:50:59;1.43;;;0.50;;
11006;SDS011;8186;57.652;11.968;2023-02-02T07:53:28;1.53;;;0.63;;
11006;SDS011;8186;57.652;11.968;2023-02-02T07:56:03;0.70;;;0.50;;
11006;SDS011;8186;57.652;11.968;2023-02-02T07:58:34;1.57;;;0.67;;
11006;SDS011;8186;57.652;11.968;2023-02-02T08:01:01;1.00;;;0.67;;
11006;SDS011;8186;57.652;11.968;2023-02-02T08:03:28;0.90;;;0.60;;
11006;SDS011;8186;57.652;11.968;2023-02-02T08:05:55;0.97;;;0.60;;
11006;SDS011;8186;57.652;11.968;2023-02-02T08:08:23;0.97;;;0.50;;
11006;SDS011;8186;57.652;11.968;2023-02-02T08:10:52;1.53;;;0.60;;
11006;SDS011;8186;57.652;11.968;2023-02-02T08:13:19;1.37;;;0.70;;
11006;SDS011;8186;57.652;11.968;2023-02-02T08:15:46;1.13;;;0.63;;
11006;SDS011;8186;57.652;11.968;2023-02-02T08:18:13;1.83;;;1.27;;
11006;SDS011;8186;57.652;11.968;2023-02-02T08:20:40;3.80;;;0.73;;
11006;SDS011;8186;57.652;11.968;2023-02-02T08:23:07;1.93;;;1.17;;
11006;SDS011;8186;57.652;11.968;2023-02-02T08:25:39;3.63;;;1.20;;
11006;SDS011;8186;57.652;11.968;2023-02-02T08:28:08;2.40;;;1.10;;
11006;SDS011;8186;57.652;11.968;2023-02-02T08:30:35;3.93;;;1.10;;
11006;SDS011;8186;57.652;11.968;2023-02-02T08:33:02;2.63;;;0.77;;
11006;SDS011;8186;57.652;11.968;2023-02-02T08:35:29;3.60;;;0.80;;
11006;SDS011;8186;57.652;11.968;2023-02-02T08:37:55;1.60;;;0.67;;
11006;SDS011;8186;57.652;11.968;2023-02-02T08:40:22;1.97;;;0.57;;
11006;SDS011;8186;57.652;11.968;2023-02-02T08:42:53;1.63;;;0.70;;
11006;SDS011;8186;57.652;11.968;2023-02-02T08:45:22;1.53;;;0.70;;
11006;SDS011;8186;57.652;11.968;2023-02-02T08:47:48;0.80;;;0.70;;
11006;SDS011;8186;57.652;11.968;2023-02-02T08:50:16;1.37;;;0.60;;
11006;SDS011;8186;57.652;11.968;2023-02-02T08:52:43;0.77;;;0.50;;
11006;SDS011;8186;57.652;11.968;2023-02-02T08:55:10;1.30;;;0.50;;
11006;SDS011;8186;57.652;11.968;2023-02-02T08:57:37;2.67;;;0.70;;
11006;SDS011;8186;57.652;11.968;2023-02-02T09:00:04;1.60;;;0.80;;
11006;SDS011;8186;57.652;11.968;2023-02-02T09:02:33;1.40;;;0.60;;
11006;SDS011;8186;57.652;11.968;2023-02-02T09:05:00;3.17;;;0.87;;
11006;SDS011;8186;57.652;11.968;2023-02-02T09:07:27;1.70;;;0.80;;
11006;SDS011;8186;57.652;11.968;2023-02-02T09:09:53;3.50;;;1.43;;
11006;SDS011;8186;57.652;11.968;2023-02-02T09:12:22;1.77;;;0.70;;
11006;SDS011;8186;57.652;11.968;2023-02-02T09:14:49;2.90;;;0.70;;
11006;SDS011;8186;57.652;11.968;2023-02-02T09:17:16;3.40;;;0.90;;
11006;SDS011;8186;57.652;11.968;2023-02-02T09:19:44;0.60;;;0.50;;
11006;SDS011;8186;57.652;11.968;2023-02-02T09:22:11;1.53;;;0.70;;
11006;SDS011;8186;57.652;11.968;2023-02-02T09:24:38;7.13;;;1.63;;
11006;SDS011;8186;57.652;11.968;2023-02-02T09:27:05;3.43;;;2.37;;
11006;SDS011;8186;57.652;11.968;2023-02-02T09:29:32;2.00;;;0.90;;
11006;SDS011;8186;57.652;11.968;2023-02-02T09:31:59;3.00;;;0.97;;
11006;SDS011;8186;57.652;11.968;2023-02-02T09:34:26;4.43;;;1.07;;
11006;SDS011;8186;57.652;11.968;2023-02-02T09:36:54;0.93;;;0.60;;
11006;SDS011;8186;57.652;11.968;2023-02-02T09:39:21;2.47;;;0.70;;
11006;SDS011;8186;57.652;11.968;2023-02-02T09:44:55;2.50;;;0.60;;
11006;SDS011;8186;57.652;11.968;2023-02-02T09:47:27;2.20;;;0.60;;
11006;SDS011;8186;57.652;11.968;2023-02-02T09:50:11;4.70;;;0.83;;
11006;SDS011;8186;57.652;11.968;2023-02-02T09:52:43;1.10;;;0.60;;
11006;SDS011;8186;57.652;11.968;2023-02-02T09:55:13;2.23;;;0.73;;
11006;SDS011;8186;57.652;11.968;2023-02-02T09:57:43;1.90;;;0.97;;
11006;SDS011;8186;57.652;11.968;2023-02-02T10:00:15;1.57;;;0.60;;
11006;SDS011;8186;57.652;11.968;2023-02-02T10:02:47;3.10;;;0.90;;
11006;SDS011;8186;57.652;11.968;2023-02-02T10:05:17;2.83;;;0.60;;
11006;SDS011;8186;57.652;11.968;2023-02-02T10:07:49;1.60;;;0.57;;
11006;SDS011;8186;57.652;11.968;2023-02-02T10:10:19;2.63;;;1.00;;
11006;SDS011;8186;57.652;11.968;2023-02-02T10:12:50;1.53;;;0.70;;
11006;SDS011;8186;57.652;11.968;2023-02-02T10:15:20;2.93;;;0.80;;
11006;SDS011;8186;57.652;11.968;2023-02-02T10:17:53;1.40;;;0.80;;
11006;SDS011;8186;57.652;11.968;2023-02-02T10:20:27;3.10;;;1.30;;
11006;SDS011;8186;57.652;11.968;2023-02-02T10:23:03;4.63;;;1.70;;
11006;SDS011;8186;57.652;11.968;2023-02-02T10:25:34;4.10;;;2.37;;
11006;SDS011;8186;57.652;11.968;2023-02-02T10:28:03;3.30;;;1.47;;
11006;SDS011;8186;57.652;11.968;2023-02-02T10:30:35;3.87;;;1.50;;
11006;SDS011;8186;57.652;11.968;2023-02-02T10:33:10;1.97;;;1.10;;
11006;SDS011;8186;57.652;11.968;2023-02-02T10:35:44;1.17;;;0.70;;
11006;SDS011;8186;57.652;11.968;2023-02-02T10:38:18;1.40;;;0.70;;
11006;SDS011;8186;57.652;11.968;2023-02-02T10:40:52;2.53;;;0.63;;
11006;SDS011;8186;57.652;11.968;2023-02-02T10:43:31;13.73;;;0.70;;
11006;SDS011;8186;57.652;11.968;2023-02-02T10:46:13;0.97;;;0.60;;
11006;SDS011;8186;57.652;11.968;2023-02-02T10:48:44;3.77;;;0.80;;
11006;SDS011;8186;57.652;11.968;2023-02-02T10:51:16;1.20;;;0.70;;
11006;SDS011;8186;57.652;11.968;2023-02-02T10:53:49;1.17;;;0.67;;
11006;SDS011;8186;57.652;11.968;2023-02-02T10:56:17;1.53;;;0.63;;
11006;SDS011;8186;57.652;11.968;2023-02-02T10:58:48;1.30;;;0.60;;
11006;SDS011;8186;57.652;11.968;2023-02-02T11:01:17;1.27;;;0.50;;
11006;SDS011;8186;57.652;11.968;2023-02-02T11:03:47;1.47;;;0.60;;
11006;SDS011;8186;57.652;11.968;2023-02-02T11:06:34;2.47;;;1.10;;
11006;SDS011;8186;57.652;11.968;2023-02-02T11:09:18;1.43;;;1.00;;
11006;SDS011;8186;57.652;11.968;2023-02-02T11:11:49;4.33;;;1.63;;
11006;SDS011;8186;57.652;11.968;2023-02-02T11:14:19;1.80;;;1.00;;
11006;SDS011;8186;57.652;11.968;2023-02-02T11:16:58;2.47;;;1.10;;
11006;SDS011;8186;57.652;11.968;2023-02-02T11:19:27;1.07;;;0.73;;
11006;SDS011;8186;57.652;11.968;2023-02-02T11:21:55;1.57;;;1.00;;
11006;SDS011;8186;57.652;11.968;2023-02-02T11:24:25;1.63;;;1.03;;
11006;SDS011;8186;57.652;11.968;2023-02-02T11:26:53;1.53;;;1.03;;
11006;SDS011;8186;57.652;11.968;2023-02-02T11:29:26;1.10;;;0.70;;
11006;SDS011;8186;57.652;11.968;2023-02-02T11:31:54;2.80;;;0.77;;
11006;SDS011;8186;57.652;11.968;2023-02-02T11:34:22;1.63;;;0.73;;
11006;SDS011;8186;57.652;11.968;2023-02-02T11:36:56;1.70;;;0.67;;
11006;SDS011;8186;57.652;11.968;2023-02-02T11:39:26;3.93;;;0.77;;
11006;SDS011;8186;57.652;11.968;2023-02-02T11:42:00;2.47;;;0.80;;
11006;SDS011;8186;57.652;11.968;2023-02-02T11:44:27;0.77;;;0.60;;
11006;SDS011;8186;57.652;11.968;2023-02-02T11:46:56;2.07;;;0.60;;
11006;SDS011;8186;57.652;11.968;2023-02-02T11:49:24;3.20;;;0.80;;
11006;SDS011;8186;57.652;11.968;2023-02-02T11:51:54;1.17;;;0.53;;
11006;SDS011;8186;57.652;11.968;2023-02-02T11:54:26;3.03;;;0.63;;
11006;SDS011;8186;57.652;11.968;2023-02-02T11:56:55;1.93;;;0.80;;
11006;SDS011;8186;57.652;11.968;2023-02-02T11:59:30;2.87;;;0.87;;
11006;SDS011;8186;57.652;11.968;2023-02-02T12:04:52;1.43;;;0.90;;
11006;SDS011;8186;57.652;11.968;2023-02-02T12:07:24;2.83;;;0.80;;
11006;SDS011;8186;57.652;11.968;2023-02-02T12:09:56;0.77;;;0.70;;
11006;SDS011;8186;57.652;11.968;2023-02-02T12:12:29;2.50;;;1.47;;
11006;SDS011;8186;57.652;11.968;2023-02-02T12:15:05;1.73;;;0.67;;
11006;SDS011;8186;57.652;11.968;2023-02-02T12:17:38;0.50;;;0.50;;
11006;SDS011;8186;57.652;11.968;2023-02-02T12:20:13;4.10;;;0.77;;
11006;SDS011;8186;57.652;11.968;2023-02-02T12:22:56;0.90;;;0.60;;
11006;SDS011;8186;57.652;11.968;2023-02-02T12:25:36;1.67;;;0.70;;
11006;SDS011;8186;57.652;11.968;2023-02-02T12:28:16;0.97;;;0.70;;
11006;SDS011;8186;57.652;11.968;2023-02-02T12:30:52;1.27;;;0.60;;
11006;SDS011;8186;57.652;11.968;2023-02-02T12:33:25;0.90;;;0.60;;
11006;SDS011;8186;57.652;11.968;2023-02-02T12:36:00;2.87;;;0.83;;
11006;SDS011;8186;57.652;11.968;2023-02-02T12:38:53;1.50;;;1.00;;
11006;SDS011;8186;57.652;11.968;2023-02-02T12:41:34;2.10;;;1.40;;
11006;SDS011;8186;57.652;11.968;2023-02-02T12:44:09;1.93;;;0.87;;
11006;SDS011;8186;57.652;11.968;2023-02-02T12:46:45;1.10;;;0.90;;
11006;SDS011;8186;57.652;11.968;2023-02-02T12:49:36;1.00;;;0.60;;
11006;SDS011;8186;57.652;11.968;2023-02-02T12:52:22;1.43;;;1.00;;
11006;SDS011;8186;57.652;11.968;2023-02-02T12:55:00;1.37;;;0.70;;
11006;SDS011;8186;57.652;11.968;2023-02-02T12:57:36;3.50;;;0.93;;
11006;SDS011;8186;57.652;11.968;2023-02-02T13:03:16;1.50;;;0.67;;
11006;SDS011;8186;57.652;11.968;2023-02-02T13:05:52;1.43;;;0.60;;
11006;SDS011;8186;57.652;11.968;2023-02-02T13:08:25;1.10;;;0.60;;
11006;SDS011;8186;57.652;11.968;2023-02-02T13:10:54;2.27;;;0.70;;
11006;SDS011;8186;57.652;11.968;2023-02-02T13:13:28;0.77;;;0.60;;
11006;SDS011;8186;57.652;11.968;2023-02-02T13:15:58;1.30;;;0.50;;
11006;SDS011;8186;57.652;11.968;2023-02-02T13:18:29;2.97;;;0.83;;
11006;SDS011;8186;57.652;11.968;2023-02-02T13:20:58;2.27;;;0.53;;
11006;SDS011;8186;57.652;11.968;2023-02-02T13:23:27;1.23;;;0.80;;
11006;SDS011;8186;57.652;11.968;2023-02-02T13:25:59;2.40;;;0.53;;
11006;SDS011;8186;57.652;11.968;2023-02-02T13:28:31;2.37;;;0.60;;
11006;SDS011;8186;57.652;11.968;2023-02-02T13:31:01;2.00;;;0.60;;
11006;SDS011;8186;57.652;11.968;2023-02-02T13:33:32;1.13;;;0.70;;
11006;SDS011;8186;57.652;11.968;2023-02-02T13:36:02;3.33;;;1.10;;
11006;SDS011;8186;57.652;11.968;2023-02-02T13:38:31;4.60;;;1.70;;
11006;SDS011;8186;57.652;11.968;2023-02-02T13:40:59;2.87;;;1.20;;
11006;SDS011;8186;57.652;11.968;2023-02-02T13:43:36;3.67;;;1.67;;
11006;SDS011;8186;57.652;11.968;2023-02-02T13:46:07;3.33;;;1.00;;
11006;SDS011;8186;57.652;11.968;2023-02-02T13:48:45;2.87;;;0.97;;
11006;SDS011;8186;57.652;11.968;2023-02-02T13:51:22;1.20;;;1.00;;
11006;SDS011;8186;57.652;11.968;2023-02-02T13:57:17;0.87;;;0.70;;
11006;SDS011;8186;57.652;11.968;2023-02-02T13:59:56;1.70;;;0.83;;
11006;SDS011;8186;57.652;11.968;2023-02-02T14:02:27;1.83;;;0.50;;
11006;SDS011;8186;57.652;11.968;2023-02-02T14:04:56;1.67;;;0.80;;
11006;SDS011;8186;57.652;11.968;2023-02-02T14:07:25;4.17;;;0.70;;
11006;SDS011;8186;57.652;11.968;2023-02-02T14:09:53;1.43;;;0.80;;
11006;SDS011;8186;57.652;11.968;2023-02-02T14:12:25;4.07;;;1.00;;
11006;SDS011;8186;57.652;11.968;2023-02-02T14:14:55;2.93;;;1.40;;
11006;SDS011;8186;57.652;11.968;2023-02-02T14:20:38;4.00;;;1.60;;
11006;SDS011;8186;57.652;11.968;2023-02-02T14:26:07;8.23;;;1.47;;
11006;SDS011;8186;57.652;11.968;2023-02-02T14:28:39;3.17;;;1.20;;
11006;SDS011;8186;57.652;11.968;2023-02-02T14:34:27;4.53;;;1.00;;
11006;SDS011;8186;57.652;11.968;2023-02-02T14:37:06;1.97;;;0.97;;
11006;SDS011;8186;57.652;11.968;2023-02-02T14:39:57;5.17;;;1.00;;
11006;SDS011;8186;57.652;11.968;2023-02-02T14:42:34;1.13;;;0.93;;
11006;SDS011;8186;57.652;11.968;2023-02-02T14:45:36;4.17;;;1.17;;
11006;SDS011;8186;57.652;11.968;2023-02-02T14:48:08;1.30;;;1.20;;
11006;SDS011;8186;57.652;11.968;2023-02-02T14:50:41;2.43;;;1.00;;
11006;SDS011;8186;57.652;11.968;2023-02-02T14:53:18;3.57;;;0.93;;
11006;SDS011;8186;57.652;11.968;2023-02-02T14:55:49;5.60;;;0.80;;
11006;SDS011;8186;57.652;11.968;2023-02-02T14:58:21;9.93;;;1.20;;
11006;SDS011;8186;57.652;11.968;2023-02-02T15:00:53;5.83;;;1.83;;
11006;SDS011;8186;57.652;11.968;2023-02-02T15:03:34;3.30;;;1.17;;
11006;SDS011;8186;57.652;11.968;2023-02-02T15:06:03;8.37;;;1.17;;
11006;SDS011;8186;57.652;11.968;2023-02-02T15:08:39;5.87;;;1.43;;
11006;SDS011;8186;57.652;11.968;2023-02-02T15:11:06;2.90;;;1.30;;
11006;SDS011;8186;57.652;11.968;2023-02-02T15:14:00;4.57;;;1.33;;
11006;SDS011;8186;57.652;11.968;2023-02-02T15:16:32;3.13;;;1.10;;
11006;SDS011;8186;57.652;11.968;2023-02-02T15:21:55;5.10;;;1.67;;
11006;SDS011;8186;57.652;11.968;2023-02-02T15:24:25;10.50;;;1.63;;
11006;SDS011;8186;57.652;11.968;2023-02-02T15:26:53;9.57;;;1.93;;
11006;SDS011;8186;57.652;11.968;2023-02-02T15:29:26;12.47;;;2.27;;
11006;SDS011;8186;57.652;11.968;2023-02-02T15:31:59;6.53;;;1.17;;
11006;SDS011;8186;57.652;11.968;2023-02-02T15:34:29;5.33;;;1.00;;
11006;SDS011;8186;57.652;11.968;2023-02-02T15:37:03;4.20;;;1.00;;
11006;SDS011;8186;57.652;11.968;2023-02-02T15:39:33;9.00;;;1.60;;
11006;SDS011;8186;57.652;11.968;2023-02-02T15:42:04;5.70;;;1.87;;